Time;durP1;ratioP1;P1;durP2;ratioP2;P2;SDS_P1;SDS_P2;PMS_P1;PMS_P2;Temp;Humidity;BMP_temperature;BMP_pressure;BME280_temperature;BME280_humidity;BME280_pressure;Samples;Min_cycle;Max_cycle;Signal;HPM_P1;HPM_P2
2023/07/20 00:01:27;;;;;;;;;5.75;5.75;;;;;22.81;38.35;101205.81;5062725;28;45596;-67
2023/07/20 00:03:55;;;;;;;;;5.25;4.00;;;;;22.80;38.14;101206.78;5061162;28;45502;-67
2023/07/20 00:06:21;;;;;;;;;4.00;4.00;;;;;22.81;38.13;101214.72;5062435;28;45295;-67
2023/07/20 00:08:46;;;;;;;;;4.50;4.00;;;;;22.73;38.27;101201.75;5062547;28;45351;-67
2023/07/20 00:11:13;;;;;;;;;6.00;5.50;;;;;22.77;38.49;101213.16;5062287;28;45315;-67
2023/07/20 00:13:38;;;;;;;;;4.50;4.00;;;;;22.76;38.01;101211.44;5071013;28;45264;-67
2023/07/20 00:16:04;;;;;;;;;9.50;5.75;;;;;22.75;38.02;101209.72;5082351;28;45634;-67
2023/07/20 00:18:29;;;;;;;;;5.00;5.00;;;;;22.72;38.23;101209.91;5082727;28;45266;-67
2023/07/20 00:20:55;;;;;;;;;8.50;5.75;;;;;22.72;38.78;101210.75;5082449;28;45223;-67
2023/07/20 00:23:22;;;;;;;;;4.50;4.50;;;;;22.72;38.28;101212.56;5081439;28;45358;-67
2023/07/20 00:25:48;;;;;;;;;5.00;5.00;;;;;22.70;38.27;101209.13;5065226;28;45426;-67
2023/07/20 00:28:13;;;;;;;;;6.00;6.00;;;;;22.69;38.53;101210.94;5072165;28;45415;-67
2023/07/20 00:30:38;;;;;;;;;4.75;4.75;;;;;22.66;38.56;101200.38;5062207;28;45342;-67
2023/07/20 00:33:04;;;;;;;;;6.00;4.00;;;;;22.67;38.84;101204.81;5062215;28;45411;-67
2023/07/20 00:35:29;;;;;;;;;5.00;3.75;;;;;22.64;38.69;101210.34;5061908;28;45414;-67
2023/07/20 00:37:54;;;;;;;;;4.50;4.50;;;;;22.58;38.66;101202.66;5065621;28;48809;-67
2023/07/20 00:40:19;;;;;;;;;4.00;4.00;;;;;22.61;38.51;101199.78;5072227;28;45319;-67
2023/07/20 00:42:45;;;;;;;;;5.00;3.75;;;;;22.60;38.84;101215.97;5061898;28;45519;-67
2023/07/20 00:45:10;;;;;;;;;6.00;4.50;;;;;22.59;38.66;101208.88;5060440;28;48337;-67
2023/07/20 00:47:36;;;;;;;;;6.25;5.75;;;;;22.56;38.78;101208.13;5065458;28;45258;-67
2023/07/20 00:50:02;;;;;;;;;10.00;7.50;;;;;22.52;39.08;101206.53;5061997;28;45297;-67
2023/07/20 00:52:28;;;;;;;;;6.25;4.00;;;;;22.54;38.46;101211.81;5062067;28;45251;-67
2023/07/20 00:54:56;;;;;;;;;5.00;5.00;;;;;22.50;39.08;101202.22;5061357;28;45450;-67
2023/07/20 00:57:24;;;;;;;;;6.00;6.00;;;;;22.50;39.00;101199.56;5065353;28;45342;-68
2023/07/20 00:59:49;;;;;;;;;6.75;4.00;;;;;22.47;38.92;101205.09;5061663;28;45295;-67
2023/07/20 01:02:14;;;;;;;;;7.50;5.50;;;;;22.41;38.86;101198.25;5061724;28;45306;-67
2023/07/20 01:04:40;;;;;;;;;7.00;5.50;;;;;22.46;38.71;101211.41;5061368;28;45448;-67
2023/07/20 01:07:22;;;;;;;;;6.50;6.00;;;;;22.44;39.27;101202.56;5060441;28;45234;-67
2023/07/20 01:09:58;;;;;;;;;6.00;6.00;;;;;22.40;39.28;101202.75;5061583;28;45390;-67
2023/07/20 01:12:30;;;;;;;;;6.75;6.75;;;;;22.41;39.16;101200.94;5061153;28;45350;-67
2023/07/20 01:14:55;;;;;;;;;5.00;5.00;;;;;22.35;39.17;101194.09;5080941;28;46154;-67
2023/07/20 01:17:20;;;;;;;;;6.50;5.00;;;;;22.35;38.99;101198.56;5081730;28;45477;-66
2023/07/20 01:19:45;;;;;;;;;6.00;5.00;;;;;22.34;39.04;101203.06;5080459;28;45348;-67
2023/07/20 01:22:30;;;;;;;;;7.00;7.00;;;;;22.35;39.35;101195.91;5081594;28;45507;-67
2023/07/20 01:25:13;;;;;;;;;5.00;5.00;;;;;22.32;39.15;101196.94;5081267;28;45457;-67
2023/07/20 01:27:49;;;;;;;;;4.75;4.75;;;;;;;;5077085;27;45231;-65
2023/07/20 01:30:23;;;;;;;;;5.00;5.00;;;;;22.28;39.24;101187.38;5061199;28;45279;-66
2023/07/20 01:32:51;;;;;;;;;5.00;5.00;;;;;22.28;39.65;101191.88;5061087;28;45661;-65
2023/07/20 01:35:19;;;;;;;;;10.25;7.25;;;;;22.24;39.54;101186.66;5060339;28;45395;-65
2023/07/20 01:37:47;;;;;;;;;4.75;4.75;;;;;22.22;39.44;101193.06;5059692;28;45441;-66
2023/07/20 01:40:14;;;;;;;;;5.25;5.00;;;;;22.20;39.80;101187.78;5060911;28;45176;-66
2023/07/20 01:42:45;;;;;;;;;5.50;5.50;;;;;22.17;39.89;101197.81;5060572;28;45543;-65
2023/07/20 01:45:10;;;;;;;;;3.25;3.25;;;;;22.16;39.51;101188.94;5059407;28;46046;-65
2023/07/20 01:47:36;;;;;;;;;5.00;4.00;;;;;22.15;39.71;101189.00;5060750;28;49693;-65
2023/07/20 01:50:01;;;;;;;;;6.75;5.75;;;;;22.13;39.65;101188.22;5060960;28;45232;-65
2023/07/20 01:52:26;;;;;;;;;6.25;6.25;;;;;22.11;39.45;101180.25;5061084;28;45220;-66
2023/07/20 01:54:51;;;;;;;;;5.50;5.50;;;;;22.08;39.73;101177.78;5060257;28;58286;-65
2023/07/20 01:57:17;;;;;;;;;8.25;7.00;;;;;22.07;40.23;101171.56;5064125;28;45185;-65
2023/07/20 01:59:42;;;;;;;;;6.00;6.00;;;;;22.08;39.87;101175.09;5060660;28;45303;-65
2023/07/20 02:02:08;;;;;;;;;6.50;5.50;;;;;22.07;39.78;101176.03;5060847;28;45517;-66
2023/07/20 02:04:33;;;;;;;;;7.00;6.25;;;;;22.06;39.88;101174.31;5060472;28;46101;-65
2023/07/20 02:06:59;;;;;;;;;7.50;5.00;;;;;22.04;40.00;101174.41;5060747;28;45269;-66
2023/07/20 02:09:24;;;;;;;;;5.75;4.75;;;;;22.03;40.26;101170.00;5060779;28;45304;-65
2023/07/20 02:11:50;;;;;;;;;5.50;5.50;;;;;22.00;39.93;101166.63;5060586;28;45221;-66
2023/07/20 02:14:15;;;;;;;;;7.00;7.00;;;;;21.98;40.01;101164.03;5074446;28;45666;-66
2023/07/20 02:16:40;;;;;;;;;7.50;6.00;;;;;21.99;40.30;101164.91;5080584;28;48481;-65
2023/07/20 02:19:06;;;;;;;;;5.50;4.25;;;;;21.96;40.42;101159.72;5080812;27;45725;-66
2023/07/20 02:21:32;;;;;;;;;6.25;6.25;;;;;21.96;40.30;101159.72;5079353;28;45583;-66
2023/07/20 02:23:57;;;;;;;;;5.50;4.75;;;;;21.94;40.40;101156.25;5080667;27;46326;-66
2023/07/20 02:26:23;;;;;;;;;5.25;5.25;;;;;21.92;40.19;101159.03;5080443;28;45302;-66
2023/07/20 02:28:48;;;;;;;;;7.75;4.50;;;;;21.90;40.08;101160.94;5075948;28;45454;-66
2023/07/20 02:31:14;;;;;;;;;9.00;6.00;;;;;21.86;40.55;101157.56;5060401;28;45285;-66
2023/07/20 02:33:39;;;;;;;;;6.25;5.00;;;;;21.86;40.58;101162.91;5060030;28;46084;-66
2023/07/20 02:36:04;;;;;;;;;4.75;4.00;;;;;21.87;40.28;101167.34;5062241;28;47946;-66
2023/07/20 02:38:29;;;;;;;;;5.75;5.25;;;;;21.81;40.48;101156.09;5060374;28;45674;-66
2023/07/20 02:40:55;;;;;;;;;6.75;5.50;;;;;21.84;40.80;101163.97;5059857;28;47578;-66
2023/07/20 02:43:20;;;;;;;;;8.25;6.00;;;;;21.84;40.22;101164.81;5059774;28;45224;-65
2023/07/20 02:45:45;;;;;;;;;7.00;5.75;;;;;21.81;40.47;101159.63;5079935;28;55113;-66
2023/07/20 02:48:11;;;;;;;;;7.25;5.75;;;;;21.80;40.49;101163.25;5079524;28;45202;-66
2023/07/20 02:50:36;;;;;;;;;5.25;4.00;;;;;21.79;40.81;101166.88;5080346;28;45395;-66
2023/07/20 02:53:02;;;;;;;;;7.25;5.75;;;;;21.75;40.46;101168.84;5065484;28;46548;-66
2023/07/20 02:55:27;;;;;;;;;8.25;6.50;;;;;21.76;40.60;101175.06;5075242;28;45979;-66
2023/07/20 02:57:52;;;;;;;;;5.00;5.00;;;;;21.72;40.20;101173.50;5060004;28;45321;-66
2023/07/20 03:00:19;;;;;;;;;3.25;3.25;;;;;21.71;40.44;101171.75;5059993;28;45215;-66
2023/07/20 03:02:47;;;;;;;;;5.00;2.25;;;;;21.69;40.68;101171.00;5059836;28;46066;-66
2023/07/20 03:05:13;;;;;;;;;3.50;3.50;;;;;21.65;40.71;101162.28;5059436;28;45261;-65
2023/07/20 03:07:38;;;;;;;;;5.50;5.00;;;;;21.65;40.94;101159.59;5059852;28;45456;-66
2023/07/20 03:10:06;;;;;;;;;4.00;4.00;;;;;21.62;40.53;101158.91;5059500;28;45455;-65
2023/07/20 03:12:34;;;;;;;;;6.75;5.50;;;;;21.64;40.88;101167.72;5059405;28;45241;-66
2023/07/20 03:14:59;;;;;;;;;5.75;4.75;;;;;21.62;40.59;101164.25;5078540;28;45340;-65
2023/07/20 03:17:24;;;;;;;;;4.75;4.50;;;;;21.61;40.94;101163.41;5066584;28;45826;-65
2023/07/20 03:19:50;;;;;;;;;4.00;3.00;;;;;21.58;40.60;101166.22;5059639;28;45379;-65
2023/07/20 03:22:15;;;;;;;;;4.00;4.00;;;;;21.54;41.04;101165.47;5059514;28;45200;-66
2023/07/20 03:24:40;;;;;;;;;5.25;5.00;;;;;21.54;40.95;101169.97;5058382;28;45355;-66
2023/07/20 03:27:06;;;;;;;;;7.00;5.00;;;;;21.52;40.80;101166.50;5070398;28;45489;-66
2023/07/20 03:29:33;;;;;;;;;6.75;6.25;;;;;21.49;41.08;101158.69;5061625;28;45398;-65
2023/07/20 03:31:59;;;;;;;;;7.00;5.00;;;;;21.49;40.99;101169.38;5059495;28;45414;-65
2023/07/20 03:34:24;;;;;;;;;3.75;3.50;;;;;21.47;41.07;101168.56;5059421;28;45299;-66
2023/07/20 03:36:50;;;;;;;;;5.00;5.00;;;;;21.43;41.15;101166.09;5059486;28;45263;-66
2023/07/20 03:39:15;;;;;;;;;4.00;3.75;;;;;21.42;41.30;101169.69;5059532;28;45568;-66
2023/07/20 03:41:41;;;;;;;;;5.50;4.50;;;;;21.36;41.21;101163.81;5059273;28;45232;-65
2023/07/20 03:44:06;;;;;;;;;5.25;5.25;;;;;21.37;41.67;101169.06;5057859;28;45293;-65
2023/07/20 03:46:33;;;;;;;;;6.25;4.00;;;;;21.36;41.46;101174.50;5068551;28;45668;-66
2023/07/20 03:48:59;;;;;;;;;5.75;3.75;;;;;21.35;41.33;101173.63;5059331;28;45186;-66
2023/07/20 03:51:24;;;;;;;;;6.75;5.25;;;;;21.33;41.75;101174.66;5059155;28;46129;-66
2023/07/20 03:53:49;;;;;;;;;3.00;3.00;;;;;21.27;41.41;101166.00;5048477;28;45730;-66
2023/07/20 03:56:15;;;;;;;;;3.25;3.25;;;;;21.27;41.65;101168.69;5078371;28;45359;-65
2023/07/20 03:58:40;;;;;;;;;4.00;4.00;;;;;21.21;41.31;101160.13;5060621;28;45150;-66
2023/07/20 04:01:07;;;;;;;;;6.75;5.00;;;;;21.22;41.83;101165.41;5062966;28;45344;-66
2023/07/20 04:03:32;;;;;;;;;4.50;4.00;;;;;21.18;41.65;101170.97;5062502;28;45323;-65
2023/07/20 04:05:57;;;;;;;;;5.50;4.75;;;;;21.18;41.95;101174.53;5071112;28;45303;-66
2023/07/20 04:08:24;;;;;;;;;8.50;7.00;;;;;21.16;41.47;101160.38;5077886;28;45819;-66
2023/07/20 04:10:49;;;;;;;;;6.25;5.00;;;;;21.14;42.10;101164.06;5062242;28;46874;-66
2023/07/20 04:13:15;;;;;;;;;3.25;3.25;;;;;21.11;41.78;101155.25;5067134;28;55295;-66
2023/07/20 04:15:40;;;;;;;;;5.00;5.00;;;;;21.09;41.74;101150.94;5082800;28;45393;-66
2023/07/20 04:18:06;;;;;;;;;5.00;5.00;;;;;21.07;41.75;101163.53;5081352;28;45254;-65
2023/07/20 04:20:31;;;;;;;;;5.75;5.75;;;;;21.05;41.82;101160.06;5082510;28;46261;-66
2023/07/20 04:22:56;;;;;;;;;5.25;5.00;;;;;21.03;41.60;101162.81;5061755;28;45301;-66
2023/07/20 04:25:22;;;;;;;;;1.25;1.25;;;;;21.02;42.13;101161.09;5069624;28;45239;-68
2023/07/20 04:27:47;;;;;;;;;4.50;4.50;;;;;20.99;42.28;101157.72;5073038;28;45521;-66
2023/07/20 04:30:13;;;;;;;;;4.00;4.00;;;;;20.98;42.19;101159.53;5062448;28;45377;-66
2023/07/20 04:32:43;;;;;;;;;8.25;5.25;;;;;20.96;41.76;101156.06;5062054;28;45300;-66
2023/07/20 04:35:09;;;;;;;;;5.25;3.50;;;;;20.93;42.35;101156.22;5062315;28;45330;-66
2023/07/20 04:37:34;;;;;;;;;6.25;5.25;;;;;20.93;42.47;101150.88;5061904;28;45330;-66
2023/07/20 04:40:00;;;;;;;;;6.00;5.00;;;;;20.88;42.47;101144.88;5061906;28;45314;-66
2023/07/20 04:42:25;;;;;;;;;6.00;6.00;;;;;20.89;42.38;101155.53;5079743;28;45684;-66
2023/07/20 04:44:51;;;;;;;;;7.00;6.00;;;;;20.88;42.33;101156.47;5069905;28;45210;-66
2023/07/20 04:47:16;;;;;;;;;7.50;5.00;;;;;20.84;42.05;101148.66;5061899;28;45423;-66
2023/07/20 04:49:42;;;;;;;;;7.25;6.25;;;;;20.84;42.55;101154.00;5061738;28;46233;-65
2023/07/20 04:52:07;;;;;;;;;8.25;6.00;;;;;20.82;42.71;101154.09;5061714;28;45297;-65
2023/07/20 04:54:33;;;;;;;;;6.50;4.50;;;;;20.80;42.72;101152.44;5061665;28;45470;-66
2023/07/20 04:56:58;;;;;;;;;3.00;3.00;;;;;20.78;42.75;101153.38;5061469;28;45615;-66
2023/07/20 04:59:23;;;;;;;;;7.00;5.00;;;;;20.77;42.75;101148.13;5060092;28;46084;-65
2023/07/20 05:01:49;;;;;;;;;6.00;5.00;;;;;20.74;42.37;101157.16;5061528;28;45483;-66
2023/07/20 05:04:14;;;;;;;;;7.00;5.25;;;;;20.68;43.08;101152.09;5061877;28;45318;-66
2023/07/20 05:06:39;;;;;;;;;5.00;4.25;;;;;20.69;42.98;101160.94;5061503;28;45205;-65
2023/07/20 05:09:07;;;;;;;;;4.50;4.00;;;;;20.65;42.75;101157.56;5061672;28;45232;-65
2023/07/20 05:11:33;;;;;;;;;7.25;4.00;;;;;20.57;43.15;101149.09;5060658;28;45675;-65
2023/07/20 05:13:58;;;;;;;;;5.50;5.50;;;;;20.60;43.01;101160.50;5072991;28;45309;-66
2023/07/20 05:16:23;;;;;;;;;6.00;4.75;;;;;20.58;43.25;101157.03;5081343;28;51502;-66
2023/07/20 05:18:48;;;;;;;;;4.25;3.50;;;;;20.56;43.09;101156.22;5081914;28;45337;-67
2023/07/20 05:21:14;;;;;;;;;5.25;5.25;;;;;20.56;43.10;101158.03;5081456;28;45526;-66
2023/07/20 05:23:39;;;;;;;;;4.75;4.25;;;;;20.55;43.36;101161.63;5081880;28;45636;-65
2023/07/20 05:26:04;;;;;;;;;5.75;5.00;;;;;20.52;43.31;101167.16;5081315;28;45426;-65
2023/07/20 05:28:30;;;;;;;;;4.25;3.50;;;;;20.55;43.20;101169.66;5068852;28;46274;-65
2023/07/20 05:30:55;;;;;;;;;5.75;5.75;;;;;20.53;43.18;101175.06;5061132;28;45311;-65
2023/07/20 05:33:21;;;;;;;;;4.50;4.50;;;;;20.54;43.43;101173.25;5061440;28;45212;-65
2023/07/20 05:35:48;;;;;;;;;5.50;5.00;;;;;20.54;43.17;101175.94;5061357;28;45493;-65
2023/07/20 05:38:13;;;;;;;;;6.75;5.75;;;;;20.50;43.38;101177.88;5060920;28;46592;-66
2023/07/20 05:40:43;;;;;;;;;6.00;6.00;;;;;20.52;43.42;101181.34;5060718;28;45267;-65
2023/07/20 05:43:09;;;;;;;;;9.00;5.75;;;;;20.51;43.62;101168.09;5061169;28;45261;-66
2023/07/20 05:45:34;;;;;;;;;9.25;6.75;;;;;20.51;43.71;101176.09;5060662;28;45422;-65
2023/07/20 05:47:59;;;;;;;;;4.00;4.00;;;;;20.51;43.87;101176.94;5060941;28;45408;-65
2023/07/20 05:50:25;;;;;;;;;4.00;4.00;;;;;20.50;44.00;101171.69;5060854;28;45325;-65
2023/07/20 05:52:54;;;;;;;;;6.00;5.50;;;;;20.50;43.59;101169.88;5050591;28;45451;-66
2023/07/20 05:55:20;;;;;;;;;5.50;4.75;;;;;20.50;44.04;101161.84;5060554;28;45233;-65
2023/07/20 05:57:45;;;;;;;;;4.75;4.00;;;;;20.52;44.15;101164.47;5060546;28;46040;-65
2023/07/20 06:00:12;;;;;;;;;8.00;6.50;;;;;20.52;43.86;101159.13;5060630;28;45308;-67
2023/07/20 06:02:38;;;;;;;;;6.00;4.75;;;;;20.53;44.11;101155.53;5061152;28;45397;-68
2023/07/20 06:05:04;;;;;;;;;6.75;6.75;;;;;20.54;44.07;101154.56;5060327;28;45544;-68
2023/07/20 06:07:30;;;;;;;;;5.50;5.50;;;;;20.54;44.16;101159.91;5059195;28;46222;-67
2023/07/20 06:09:55;;;;;;;;;10.75;7.50;;;;;20.53;44.36;101159.06;5060343;28;45413;-67
2023/07/20 06:12:20;;;;;;;;;8.50;6.75;;;;;20.54;44.13;101158.13;5060599;28;45349;-68
2023/07/20 06:14:46;;;;;;;;;4.25;4.25;;;;;20.54;44.00;101162.56;5078443;28;51858;-68
2023/07/20 06:17:11;;;;;;;;;7.00;5.75;;;;;20.54;44.54;101151.91;5080988;28;45326;-67
2023/07/20 06:19:37;;;;;;;;;6.50;6.00;;;;;20.55;44.57;101159.84;5079313;28;45194;-68
2023/07/20 06:22:02;;;;;;;;;6.75;5.75;;;;;20.57;44.79;101168.63;5079457;28;45414;-68
2023/07/20 06:24:27;;;;;;;;;6.00;4.00;;;;;20.55;44.81;101166.97;5080629;28;45596;-68
2023/07/20 06:26:53;;;;;;;;;9.50;6.75;;;;;20.54;44.76;101159.91;5077226;28;45652;-68
2023/07/20 06:29:19;;;;;;;;;4.25;4.25;;;;;20.55;44.36;101161.63;5062956;28;45285;-68
2023/07/20 06:31:44;;;;;;;;;5.00;4.00;;;;;20.56;44.28;101163.38;5060573;28;45538;-68
2023/07/20 06:34:10;;;;;;;;;6.50;5.25;;;;;20.57;44.88;101162.44;5060184;28;45602;-68
2023/07/20 06:36:35;;;;;;;;;7.25;5.25;;;;;20.56;44.95;101153.56;5060097;28;45299;-68
2023/07/20 06:39:02;;;;;;;;;9.00;7.00;;;;;20.57;44.73;101160.63;5060263;28;45398;-68
2023/07/20 06:41:28;;;;;;;;;9.50;7.50;;;;;20.59;44.96;101152.53;5059160;28;45420;-68
2023/07/20 06:43:57;;;;;;;;;7.75;5.75;;;;;20.58;44.46;101157.03;5059702;28;45377;-68
2023/07/20 06:46:23;;;;;;;;;4.50;4.50;;;;;20.58;45.07;101156.16;5060144;28;46206;-68
2023/07/20 06:48:49;;;;;;;;;5.00;4.75;;;;;20.61;44.87;101153.34;5059722;28;45289;-68
2023/07/20 06:51:14;;;;;;;;;8.00;7.00;;;;;20.60;45.19;101160.50;5060248;28;45205;-68
2023/07/20 06:53:39;;;;;;;;;7.50;7.00;;;;;20.60;44.78;101160.50;5059732;28;50092;-68
2023/07/20 06:56:04;;;;;;;;;7.75;5.00;;;;;20.65;44.79;101160.25;5060003;28;45228;-68
2023/07/20 06:58:30;;;;;;;;;7.25;4.25;;;;;20.68;44.92;101168.13;5059477;28;49444;-66
2023/07/20 07:00:55;;;;;;;;;6.75;5.75;;;;;20.70;44.70;101158.19;5060141;28;45284;-65
2023/07/20 07:03:21;;;;;;;;;0.25;0.25;;;;;20.73;44.72;101151.91;5059781;28;45388;-65
2023/07/20 07:05:46;;;;;;;;;7.75;7.00;;;;;20.76;45.15;101152.59;5059964;28;45435;-67
2023/07/20 07:08:12;;;;;;;;;5.25;5.00;;;;;20.77;44.55;101154.31;5059650;28;45429;-68
2023/07/20 07:10:38;;;;;;;;;5.50;4.25;;;;;20.77;45.21;101148.13;5059971;28;45322;-68
2023/07/20 07:13:03;;;;;;;;;7.75;6.00;;;;;20.82;44.57;101148.75;5063365;28;45338;-68
2023/07/20 07:15:29;;;;;;;;;4.75;4.75;;;;;20.84;45.20;101148.66;5079983;28;45992;-68
2023/07/20 07:17:54;;;;;;;;;5.00;5.00;;;;;20.87;45.10;101148.53;5079912;28;45315;-68
2023/07/20 07:20:20;;;;;;;;;4.75;4.75;;;;;20.87;45.25;101146.72;5080258;28;45303;-68
2023/07/20 07:22:46;;;;;;;;;6.00;6.00;;;;;20.89;44.73;101144.84;5079777;28;45236;-68
2023/07/20 07:25:12;;;;;;;;;6.50;3.25;;;;;20.93;44.97;101156.22;5079657;27;45376;-68
2023/07/20 07:27:37;;;;;;;;;5.00;4.25;;;;;20.97;45.09;101151.56;5075670;28;45416;-68
2023/07/20 07:30:03;;;;;;;;;1.75;1.75;;;;;21.00;45.12;101148.75;5059837;28;45212;-68
2023/07/20 07:32:28;;;;;;;;;4.00;4.00;;;;;21.00;44.55;101141.59;5059549;28;45460;-68
2023/07/20 07:34:55;;;;;;;;;3.00;3.00;;;;;21.00;44.97;101144.25;5062446;28;49109;-68
2023/07/20 07:37:20;;;;;;;;;6.00;4.00;;;;;21.05;45.14;101144.88;5062908;28;45309;-68
2023/07/20 07:39:45;;;;;;;;;7.50;6.00;;;;;21.06;44.82;101149.28;5063124;28;45517;-68
2023/07/20 07:42:12;;;;;;;;;4.00;4.00;;;;;21.12;44.42;101148.13;5062793;28;45468;-67
2023/07/20 07:44:37;;;;;;;;;3.25;3.00;;;;;21.14;44.90;101153.38;5062384;28;45412;-68
2023/07/20 07:47:03;;;;;;;;;5.25;5.25;;;;;21.14;44.73;101148.88;5062501;28;45327;-68
2023/07/20 07:49:29;;;;;;;;;1.00;1.00;;;;;21.18;44.95;101153.16;5063171;28;45274;-68
2023/07/20 07:51:54;;;;;;;;;4.75;4.25;;;;;21.21;44.94;101155.66;5062695;28;45513;-68
2023/07/20 07:54:19;;;;;;;;;6.25;4.00;;;;;21.25;44.57;101151.00;5062869;28;45428;-68
2023/07/20 07:56:45;;;;;;;;;6.00;3.75;;;;;21.24;44.90;101155.50;5062273;28;54126;-68
2023/07/20 07:59:11;;;;;;;;;3.25;3.00;;;;;21.28;44.32;101150.84;5062645;28;45424;-68
2023/07/20 08:01:36;;;;;;;;;3.00;3.00;;;;;21.28;44.42;101145.50;5062619;28;45174;-68
2023/07/20 08:04:03;;;;;;;;;4.25;3.75;;;;;21.33;44.26;101151.44;5062463;28;46359;-68
2023/07/20 08:06:29;;;;;;;;;3.25;3.00;;;;;21.33;44.53;101137.22;5062606;28;45315;-68
2023/07/20 08:08:54;;;;;;;;;5.75;3.25;;;;;21.37;44.18;101144.13;5062699;28;45216;-68
2023/07/20 08:11:19;;;;;;;;;4.75;4.00;;;;;21.38;44.17;101146.75;5062344;28;45586;-68
2023/07/20 08:13:45;;;;;;;;;6.25;3.00;;;;;21.41;44.00;101140.38;5072020;28;45419;-68
2023/07/20 08:16:10;;;;;;;;;4.75;4.00;;;;;21.45;44.60;101136.59;5081371;28;45223;-68
2023/07/20 08:18:35;;;;;;;;;4.50;4.50;;;;;21.48;44.60;101136.41;5081497;28;45625;-68
2023/07/20 08:21:01;;;;;;;;;5.25;4.25;;;;;21.51;44.65;101138.94;5082513;28;45504;-68
2023/07/20 08:23:27;;;;;;;;;7.50;6.50;;;;;21.54;44.72;101132.56;5082318;28;45239;-68
2023/07/20 08:25:53;;;;;;;;;3.75;2.00;;;;;21.56;44.36;101128.03;5080505;28;45339;-68
2023/07/20 08:28:18;;;;;;;;;3.25;3.25;;;;;21.61;44.36;101130.44;5071198;28;45373;-68
2023/07/20 08:30:46;;;;;;;;;6.25;5.25;;;;;21.64;44.10;101128.44;5062124;28;45319;-68
2023/07/20 08:33:16;;;;;;;;;11.00;7.75;;;;;21.63;44.37;101128.53;5061928;28;46191;-68
2023/07/20 08:35:42;;;;;;;;;7.00;5.00;;;;;21.69;44.50;101126.38;5060453;28;45379;-68
2023/07/20 08:38:08;;;;;;;;;4.00;4.00;;;;;21.77;44.03;101127.78;5062084;28;45338;-68
2023/07/20 08:40:38;;;;;;;;;4.25;3.00;;;;;21.83;43.93;101132.81;5061644;28;45315;-68
2023/07/20 08:43:04;;;;;;;;;3.00;3.00;;;;;21.85;43.96;101120.22;5061821;28;46316;-68
2023/07/20 08:45:32;;;;;;;;;4.00;4.00;;;;;21.90;44.13;101118.13;5060446;28;45358;-66
2023/07/20 08:48:00;;;;;;;;;3.00;3.00;;;;;21.94;43.80;101118.81;5062154;28;45442;-68
2023/07/20 08:50:30;;;;;;;;;3.25;3.25;;;;;21.97;44.09;101119.50;5060355;28;45507;-68
2023/07/20 08:52:57;;;;;;;;;4.75;3.00;;;;;22.04;43.71;101118.22;5061770;28;45243;-68
2023/07/20 08:55:24;;;;;;;;;4.00;3.00;;;;;22.08;43.74;101118.91;5061448;28;45347;-68
2023/07/20 08:58:00;;;;;;;;;3.75;3.25;;;;;22.13;43.79;101122.19;5061597;28;45315;-68
2023/07/20 09:00:29;;;;;;;;;5.75;3.00;;;;;22.19;43.21;101110.28;5061829;28;45322;-68
2023/07/20 09:02:54;;;;;;;;;4.50;4.50;;;;;22.25;43.99;101112.59;5060045;28;45474;-68
2023/07/20 09:05:22;;;;;;;;;3.00;3.00;;;;;22.32;43.89;101113.94;5061441;28;45374;-68
2023/07/20 09:07:48;;;;;;;;;3.75;3.00;;;;;22.41;43.70;101123.28;5061663;28;45280;-68
2023/07/20 09:10:13;;;;;;;;;2.00;2.00;;;;;22.46;43.50;101121.22;5061464;28;45260;-69
2023/07/20 09:12:43;;;;;;;;;4.00;4.00;;;;;22.52;43.33;101123.53;5065971;28;46838;-68
2023/07/20 09:15:10;;;;;;;;;5.25;3.75;;;;;22.56;43.19;101125.09;5081816;28;45176;-68
2023/07/20 09:17:36;;;;;;;;;3.00;3.00;;;;;22.62;43.57;101126.53;5080528;28;45398;-68
2023/07/20 09:20:09;;;;;;;;;2.00;2.00;;;;;22.65;43.29;101117.47;5080187;28;45357;-68
2023/07/20 09:22:35;;;;;;;;;3.00;2.25;;;;;22.71;43.21;101117.94;5081455;28;46032;-68
2023/07/20 09:25:00;;;;;;;;;2.00;2.00;;;;;22.77;42.71;101119.41;5081287;28;45311;-68
2023/07/20 09:27:47;;;;;;;;;3.00;3.00;;;;;22.85;42.48;101117.13;5079131;28;45286;-69
2023/07/20 09:30:14;;;;;;;;;2.50;2.50;;;;;22.90;42.54;101106.13;5061258;28;45551;-69
2023/07/20 09:32:43;;;;;;;;;2.25;2.00;;;;;22.99;42.60;101104.72;5060950;28;45426;-69
2023/07/20 09:35:19;;;;;;;;;3.00;3.00;;;;;23.09;42.36;101105.03;5059779;28;45331;-69
2023/07/20 09:37:54;;;;;;;;;3.00;3.00;;;;;23.16;42.47;101106.41;5059900;28;45174;-69
2023/07/20 09:40:20;;;;;;;;;3.25;3.25;;;;;23.24;42.17;101106.78;5060889;28;45247;-68
2023/07/20 09:42:46;;;;;;;;;4.50;3.25;;;;;23.28;42.33;101094.94;5060707;28;45250;-69
2023/07/20 09:45:11;;;;;;;;;2.25;2.25;;;;;23.35;42.10;101096.25;5060993;28;45358;-69
2023/07/20 09:47:38;;;;;;;;;2.50;2.50;;;;;23.42;42.08;101107.47;5061243;28;45473;-68
2023/07/20 09:50:04;;;;;;;;;4.00;3.00;;;;;23.46;41.98;101103.63;5060941;28;45366;-68
2023/07/20 09:52:31;;;;;;;;;2.00;2.00;;;;;23.51;41.89;101100.66;5060916;28;46045;-69
2023/07/20 09:54:57;;;;;;;;;3.00;2.00;;;;;23.57;41.66;101094.94;5060558;28;45304;-68
2023/07/20 09:57:23;;;;;;;;;2.75;2.75;;;;;23.60;41.88;101097.41;5060406;28;45268;-68
2023/07/20 09:59:48;;;;;;;;;3.00;3.00;;;;;23.67;41.49;101088.00;5060726;28;45230;-68
2023/07/20 10:02:22;;;;;;;;;4.50;3.00;;;;;23.73;41.46;101089.41;5060683;28;46114;-68
2023/07/20 10:04:53;;;;;;;;;2.75;2.75;;;;;23.82;41.38;101087.97;5060662;28;45298;-69
2023/07/20 10:07:21;;;;;;;;;3.00;3.00;;;;;23.86;41.20;101074.25;5060908;28;45414;-69
2023/07/20 10:09:48;;;;;;;;;2.00;2.00;;;;;23.98;40.86;101087.88;5060294;28;45679;-69
2023/07/20 10:12:16;;;;;;;;;2.00;2.00;;;;;24.08;40.78;101085.44;5059022;28;47181;-69
2023/07/20 10:14:49;;;;;;;;;3.00;3.00;;;;;24.14;41.04;101080.53;5078097;28;45495;-69
2023/07/20 10:17:17;;;;;;;;;1.00;1.00;;;;;24.23;40.77;101079.06;5080964;28;45277;-69
2023/07/20 10:19:44;;;;;;;;;2.25;2.25;;;;;24.32;40.56;101077.56;5080598;28;45275;-69
2023/07/20 10:22:16;;;;;;;;;1.00;1.00;;;;;24.40;40.81;101079.75;5080565;28;47081;-69
2023/07/20 10:24:45;;;;;;;;;1.00;1.00;;;;;24.52;40.46;101076.22;5079389;28;45322;-69
2023/07/20 10:27:11;;;;;;;;;2.25;1.00;;;;;24.65;40.32;101079.84;5079910;28;45381;-69
2023/07/20 10:29:37;;;;;;;;;1.00;1.00;;;;;24.77;40.19;101075.44;5060287;28;45232;-69
2023/07/20 10:32:04;;;;;;;;;1.75;1.75;;;;;24.92;40.23;101070.00;5060235;28;46195;-69
2023/07/20 10:34:29;;;;;;;;;1.00;1.00;;;;;25.10;40.37;101062.44;5058968;28;45277;-69
2023/07/20 10:36:55;;;;;;;;;2.25;1.00;;;;;25.28;40.09;101047.69;5060542;28;45244;-69
2023/07/20 10:39:28;;;;;;;;;1.50;1.50;;;;;25.51;40.25;101052.41;5059196;28;45281;-66
2023/07/20 10:42:07;;;;;;;;;3.00;1.50;;;;;25.77;39.68;101047.81;5058590;28;47082;-68
2023/07/20 10:44:33;;;;;;;;;0.00;0.00;;;;;26.02;40.11;101046.84;5060191;28;45323;-68
2023/07/20 10:47:05;;;;;;;;;2.25;1.50;;;;;26.32;39.47;101047.38;5060129;28;45400;-69
2023/07/20 10:49:33;;;;;;;;;1.25;1.25;;;;;26.63;39.37;101043.19;5060182;28;45409;-69
2023/07/20 10:52:00;;;;;;;;;0.25;0.25;;;;;26.89;39.43;101027.72;5059886;28;45356;-68
2023/07/20 10:54:25;;;;;;;;;1.00;0.25;;;;;27.29;39.08;101031.75;5058543;28;45281;-69
2023/07/20 10:56:51;;;;;;;;;1.50;1.50;;;;;27.64;39.06;101040.69;5059893;28;45306;-69
2023/07/20 10:59:20;;;;;;;;;1.00;1.00;;;;;28.02;38.78;101047.44;5060002;28;45437;-69
2023/07/20 11:01:47;;;;;;;;;0.75;0.75;;;;;28.38;38.19;101032.69;5059778;28;45291;-70
2023/07/20 11:04:12;;;;;;;;;0.25;0.25;;;;;28.78;38.09;101033.84;5058524;28;45665;-70
2023/07/20 11:06:43;;;;;;;;;2.00;2.00;;;;;29.20;38.05;101046.44;5059924;28;45465;-69
2023/07/20 11:09:14;;;;;;;;;1.00;1.00;;;;;29.60;37.72;101044.75;5062136;28;45290;-69
2023/07/20 11:11:41;;;;;;;;;2.75;1.75;;;;;30.06;37.73;101054.09;5069584;28;46146;-67
2023/07/20 11:14:31;;;;;;;;;0.25;0.25;;;;;30.51;36.98;101044.56;5074777;28;45447;-70
2023/07/20 11:17:14;;;;;;;;;1.00;1.00;;;;;31.06;36.72;101037.56;5062146;28;45350;-68
2023/07/20 11:19:41;;;;;;;;;3.00;3.00;;;;;31.49;36.68;101027.94;5082194;28;45320;-70
2023/07/20 11:22:09;;;;;;;;;1.25;1.25;;;;;31.95;36.46;101030.69;5083284;28;45455;-70
2023/07/20 11:24:40;;;;;;;;;1.00;1.00;;;;;32.36;35.81;101033.75;5083212;28;45343;-70